createdAt,value
2019-02-05T00:01:34.067Z,3.00
2019-02-05T00:04:06.305Z,2.90
2019-02-05T00:06:40.016Z,2.80
2019-02-05T00:09:13.672Z,2.60
2019-02-05T00:11:47.313Z,2.40
2019-02-05T00:14:21.102Z,2.40
2019-02-05T00:16:54.908Z,2.10
2019-02-05T00:19:29.393Z,2.10
2019-02-05T00:22:03.054Z,2.00
2019-02-05T00:24:36.948Z,1.90
2019-02-05T00:27:10.684Z,1.90
2019-02-05T00:29:45.196Z,1.60
2019-02-05T00:32:18.977Z,1.60
2019-02-05T00:34:53.604Z,1.40
2019-02-05T00:37:27.376Z,1.40
2019-02-05T00:40:01.209Z,1.20
2019-02-05T00:42:34.868Z,1.20
2019-02-05T00:45:11.984Z,1.20
2019-02-05T00:47:45.707Z,1.10
2019-02-05T00:50:20.348Z,1.20
2019-02-05T00:52:54.056Z,1.10
2019-02-05T00:55:27.638Z,1.10
2019-02-05T00:58:01.538Z,1.10
2019-02-05T01:00:35.355Z,1.10
2019-02-05T01:03:09.241Z,1.10
2019-02-05T01:05:43.786Z,1.10
2019-02-05T01:08:17.560Z,1.10
2019-02-05T01:10:51.324Z,1.00
2019-02-05T01:13:25.055Z,1.00
2019-02-05T01:15:58.742Z,1.00
2019-02-05T01:18:32.642Z,1.00
2019-02-05T01:21:06.344Z,1.00
2019-02-05T01:23:40.341Z,0.90
2019-02-05T01:26:14.838Z,0.90
2019-02-05T01:28:48.673Z,0.80
2019-02-05T01:31:22.451Z,0.80
2019-02-05T01:33:56.192Z,0.80
2019-02-05T01:36:30.789Z,0.60
2019-02-05T01:39:04.593Z,0.50
2019-02-05T01:41:38.392Z,0.50
2019-02-05T01:44:25.720Z,0.50
2019-02-05T01:59:24.240Z,0.50
2019-02-05T02:01:58.104Z,-0.10
2019-02-05T02:04:31.805Z,-0.20
2019-02-05T02:07:05.398Z,0.00
2019-02-05T02:09:39.109Z,0.10
2019-02-05T02:12:13.341Z,0.10
2019-02-05T02:14:47.207Z,0.20
2019-02-05T02:17:21.781Z,0.20
2019-02-05T02:19:56.311Z,0.10
2019-02-05T02:22:30.145Z,0.10
2019-02-05T02:25:04.714Z,0.10
2019-02-05T02:27:38.441Z,0.10
2019-02-05T02:33:06.996Z,0.10
2019-02-05T02:35:41.506Z,0.30
2019-02-05T02:38:15.243Z,0.20
2019-02-05T02:40:48.821Z,0.30
2019-02-05T02:43:23.221Z,0.40
2019-02-05T02:45:56.824Z,0.40
2019-02-05T02:48:30.501Z,0.20
2019-02-05T02:51:04.220Z,0.10
2019-02-05T02:53:37.764Z,0.10
2019-02-05T02:56:11.548Z,0.00
2019-02-05T02:58:45.043Z,0.00
2019-02-05T03:01:18.708Z,-0.10
2019-02-05T03:03:52.529Z,0.00
2019-02-05T03:06:27.131Z,0.00
2019-02-05T03:09:00.853Z,-0.10
2019-02-05T03:11:35.381Z,-0.10
2019-02-05T03:14:08.972Z,-0.10
2019-02-05T03:16:42.737Z,0.00
2019-02-05T03:19:17.087Z,-0.10
2019-02-05T03:21:51.599Z,0.00
2019-02-05T03:24:26.124Z,-0.10
2019-02-05T03:26:59.826Z,-0.10
2019-02-05T03:29:33.584Z,0.00
2019-02-05T03:32:07.242Z,0.00
2019-02-05T03:34:41.854Z,0.00
2019-02-05T03:37:15.712Z,0.00
2019-02-05T03:39:49.584Z,0.00
2019-02-05T03:42:23.425Z,0.00
2019-02-05T03:44:57.096Z,0.00
2019-02-05T03:47:30.968Z,0.00
2019-02-05T03:50:04.519Z,-0.10
2019-02-05T03:52:38.286Z,-0.20
2019-02-05T03:58:23.868Z,-0.10
2019-02-05T04:01:06.808Z,-0.10
2019-02-05T04:03:54.025Z,0.00
2019-02-05T04:06:47.957Z,0.00
2019-02-05T04:09:33.019Z,-0.10
2019-02-05T04:12:24.919Z,-0.10
2019-02-05T04:18:17.564Z,-0.20
2019-02-05T04:27:14.652Z,-0.10
2019-02-05T04:33:05.733Z,0.00
2019-02-05T04:38:57.685Z,0.00
2019-02-05T04:41:45.064Z,-0.10
2019-02-05T04:44:37.256Z,0.00
2019-02-05T04:50:43.523Z,0.00
2019-02-05T04:53:29.435Z,0.10
2019-02-05T04:56:09.161Z,0.00
2019-02-05T04:58:45.617Z,-0.10
2019-02-05T05:01:24.369Z,-0.20
2019-02-05T05:07:05.680Z,-0.20
2019-02-05T05:09:52.360Z,-0.10
2019-02-05T05:12:25.996Z,-0.10
2019-02-05T05:14:59.874Z,-0.10
2019-02-05T05:17:33.670Z,-0.10
2019-02-05T05:20:08.321Z,0.00
2019-02-05T05:22:42.022Z,0.00
2019-02-05T05:25:15.859Z,0.10
2019-02-05T05:27:49.537Z,0.10
2019-02-05T05:30:23.422Z,0.30
2019-02-05T05:32:57.312Z,0.30
2019-02-05T05:35:41.678Z,0.40
2019-02-05T05:38:04.630Z,0.50
2019-02-05T05:40:38.388Z,0.50
2019-02-05T05:43:12.856Z,0.70
2019-02-05T05:45:46.616Z,0.70
2019-02-05T05:48:20.375Z,0.80
2019-02-05T05:50:54.217Z,0.80
2019-02-05T05:53:28.096Z,0.90
2019-02-05T05:56:02.716Z,1.00
2019-02-05T05:58:36.453Z,1.00
2019-02-05T06:01:10.217Z,1.10
2019-02-05T06:03:44.624Z,1.20
2019-02-05T06:06:19.184Z,1.30
2019-02-05T06:08:52.930Z,1.30
2019-02-05T06:11:26.570Z,1.30
2019-02-05T06:14:01.210Z,1.30
2019-02-05T06:16:35.694Z,1.40
2019-02-05T06:19:09.469Z,1.40
2019-02-05T06:21:43.149Z,1.50
2019-02-05T06:24:16.734Z,1.40
2019-02-05T06:26:50.589Z,1.40
2019-02-05T06:29:24.325Z,1.50
2019-02-05T06:31:58.141Z,1.40
2019-02-05T06:34:31.892Z,1.40
2019-02-05T06:37:05.624Z,1.50
2019-02-05T06:39:39.228Z,1.40
2019-02-05T06:42:12.828Z,1.40
2019-02-05T06:44:46.551Z,1.50
2019-02-05T06:47:20.221Z,1.60
2019-02-05T06:49:53.955Z,1.50
2019-02-05T06:52:27.709Z,1.50
2019-02-05T06:55:02.168Z,1.50
2019-02-05T06:57:35.888Z,1.50
2019-02-05T07:00:17.704Z,1.50
2019-02-05T07:02:53.187Z,1.60
2019-02-05T17:16:44.200Z,4.10
2019-02-05T17:19:17.871Z,4.10
2019-02-05T17:21:51.616Z,4.40
2019-02-05T17:24:25.120Z,4.70
2019-02-05T17:26:58.848Z,5.00
2019-02-05T17:29:32.727Z,5.30
2019-02-05T17:32:07.820Z,5.60
2019-02-05T17:34:41.004Z,5.60
2019-02-05T17:37:14.873Z,5.80
2019-02-05T17:39:48.528Z,5.90
2019-02-05T17:42:22.211Z,5.90
2019-02-05T17:44:56.000Z,5.90
2019-02-05T17:47:29.688Z,6.00
2019-02-05T17:50:03.410Z,6.00
2019-02-05T17:52:37.976Z,6.00
2019-02-05T17:55:13.222Z,6.00
2019-02-05T17:57:46.956Z,6.00
2019-02-05T18:00:25.152Z,6.00
2019-02-05T18:02:56.857Z,6.00
2019-02-05T18:05:30.660Z,6.10
2019-02-05T18:08:04.353Z,6.10
2019-02-05T18:10:38.076Z,6.00
2019-02-05T18:13:12.544Z,6.10
2019-02-05T18:15:46.313Z,6.10
2019-02-05T18:18:20.020Z,6.20
2019-02-05T18:20:54.621Z,6.20
2019-02-05T18:23:28.340Z,6.20
2019-02-05T18:26:02.144Z,6.10
2019-02-05T18:28:36.662Z,5.70
2019-02-05T18:31:10.372Z,5.70
2019-02-05T18:33:44.894Z,6.10
2019-02-05T18:36:18.598Z,6.10
2019-02-05T18:38:53.090Z,6.20
2019-02-05T18:41:26.825Z,6.20
2019-02-05T18:44:00.626Z,6.20
2019-02-05T18:46:34.285Z,6.20
2019-02-05T18:49:08.225Z,6.20
2019-02-05T18:51:41.851Z,6.20
2019-02-05T18:54:15.729Z,6.00
2019-02-05T18:56:49.580Z,6.00
2019-02-05T18:59:24.261Z,5.90
2019-02-05T19:01:58.014Z,5.90
2019-02-05T19:04:31.679Z,5.90
2019-02-05T19:07:05.570Z,5.50
2019-02-05T19:09:39.573Z,5.40
2019-02-05T19:12:13.222Z,5.40
2019-02-05T19:14:46.943Z,5.70
2019-02-05T19:17:20.641Z,5.70
2019-02-05T19:19:55.394Z,5.80
2019-02-05T19:22:29.067Z,5.80
2019-02-05T19:25:02.728Z,6.00
2019-02-05T19:27:36.480Z,6.00
2019-02-05T19:30:15.585Z,5.80
2019-02-05T19:32:49.317Z,5.70
2019-02-05T19:35:23.077Z,5.60
2019-02-05T19:37:57.501Z,5.70
2019-02-05T19:40:31.996Z,5.80
2019-02-05T19:43:06.537Z,5.70
2019-02-05T19:45:41.170Z,5.60
2019-02-05T19:48:14.916Z,5.60
2019-02-05T19:50:48.822Z,5.80
2019-02-05T19:53:22.516Z,5.60
2019-02-05T19:55:56.424Z,5.80
2019-02-05T19:58:30.318Z,5.90
2019-02-05T20:01:04.886Z,5.50
2019-02-05T20:03:39.182Z,5.60
2019-02-05T20:08:52.744Z,5.80
2019-02-05T20:11:26.600Z,5.90
2019-02-05T20:14:00.352Z,6.00
2019-02-05T20:16:34.118Z,6.00
2019-02-05T20:19:08.675Z,6.10
2019-02-05T20:21:42.385Z,6.10
2019-02-05T20:24:16.149Z,6.10
2019-02-05T20:26:49.849Z,6.20
2019-02-05T20:29:23.564Z,6.20
2019-02-05T20:31:57.353Z,6.20
2019-02-05T20:34:31.869Z,6.30
2019-02-05T20:37:06.518Z,6.20
2019-02-05T20:39:40.270Z,6.20
2019-02-05T20:42:14.179Z,6.20
2019-02-05T20:44:48.126Z,6.10
2019-02-05T20:47:21.887Z,6.00
2019-02-05T20:49:55.732Z,5.80
2019-02-05T20:52:29.614Z,5.80
2019-02-05T20:55:03.530Z,5.80
2019-02-05T20:57:37.185Z,5.60
2019-02-05T21:00:24.237Z,5.20
2019-02-05T21:02:58.086Z,5.20
2019-02-05T21:05:31.929Z,5.00
2019-02-05T21:08:05.621Z,5.00
2019-02-05T21:10:39.444Z,4.90
2019-02-05T21:13:13.940Z,4.70
2019-02-05T21:15:47.664Z,4.60
2019-02-05T21:18:21.570Z,4.80
2019-02-05T21:20:55.280Z,4.90
2019-02-05T21:23:29.105Z,4.70
2019-02-05T21:26:02.901Z,4.70
2019-02-05T21:28:37.442Z,4.70
2019-02-05T21:31:11.180Z,4.70
2019-02-05T21:33:44.997Z,4.70
2019-02-05T21:36:19.508Z,4.60
2019-02-05T21:38:53.277Z,4.50
2019-02-05T21:41:27.019Z,4.40
2019-02-05T21:44:00.648Z,4.30
2019-02-05T21:46:34.249Z,4.10
2019-02-05T21:49:07.916Z,4.10
2019-02-05T21:54:16.261Z,3.60
2019-02-05T21:56:49.925Z,3.60
2019-02-05T21:59:23.709Z,3.60
2019-02-05T22:01:57.420Z,3.50
2019-02-05T22:04:31.203Z,3.30
2019-02-05T22:07:05.077Z,3.30
2019-02-05T22:09:38.811Z,3.20
2019-02-05T22:12:12.648Z,3.20
2019-02-05T22:14:46.464Z,3.20
2019-02-05T22:17:20.928Z,3.00
2019-02-05T22:19:54.669Z,3.00
2019-02-05T22:22:28.508Z,3.00
2019-02-05T22:25:02.377Z,2.90
2019-02-05T22:27:36.093Z,2.80
2019-02-05T22:30:12.762Z,2.70
2019-02-05T22:32:46.552Z,2.80
2019-02-05T22:35:21.044Z,2.50
2019-02-05T22:37:54.828Z,2.50
2019-02-05T22:40:29.486Z,2.60
2019-02-05T22:43:03.994Z,2.50
2019-02-05T22:45:40.895Z,2.60
2019-02-05T22:48:11.612Z,2.60
2019-02-05T22:50:45.376Z,2.60
2019-02-05T22:53:19.120Z,2.50
2019-02-05T22:55:52.781Z,2.50
2019-02-05T22:58:27.340Z,2.30
2019-02-05T23:01:17.276Z,2.30
2019-02-05T23:03:50.985Z,2.30
2019-02-05T23:06:46.159Z,2.20
2019-02-05T23:09:22.200Z,2.20
2019-02-05T23:12:19.305Z,2.10
2019-02-05T23:14:53.584Z,2.00
2019-02-05T23:17:27.294Z,2.10
2019-02-05T23:20:01.704Z,2.00
2019-02-05T23:22:35.429Z,2.00
2019-02-05T23:25:09.325Z,2.00
2019-02-05T23:27:43.044Z,2.00
2019-02-05T23:30:16.833Z,2.00
2019-02-05T23:32:50.572Z,2.00
2019-02-05T23:35:24.234Z,1.90
2019-02-05T23:37:57.961Z,1.90
2019-02-05T23:40:31.768Z,1.90
2019-02-05T23:43:05.504Z,1.90
2019-02-05T23:45:39.371Z,1.80
2019-02-05T23:48:13.212Z,1.70
2019-02-05T23:50:47.180Z,1.80
2019-02-05T23:53:20.885Z,1.80
2019-02-05T23:55:54.556Z,1.70
2019-02-05T23:58:28.318Z,1.70
